TimeMST,TemperatureF,Dew PointF,Humidity,Sea Level PressureIn,VisibilityMPH,Wind Direction,Wind SpeedMPH,Gust SpeedMPH,PrecipitationIn,Events,Conditions,WindDirDegrees,DateUTC
12:53 AM,12.9,7.0,77,29.99,10.0,West,5.8,-,N/A,,Overcast,270,2012-12-11 07:53:00
1:53 AM,10.9,8.1,88,30.02,10.0,West,4.6,-,N/A,,Mostly Cloudy,260,2012-12-11 08:53:00
2:53 AM,7.0,3.9,87,30.03,10.0,WSW,5.8,-,N/A,,Partly Cloudy,250,2012-12-11 09:53:00
3:53 AM,8.1,5.0,87,30.00,10.0,Calm,Calm,-,N/A,,Overcast,0,2012-12-11 10:53:00
4:53 AM,10.9,3.9,73,29.99,10.0,WSW,5.8,-,N/A,,Mostly Cloudy,240,2012-12-11 11:53:00
5:53 AM,8.1,3.9,83,30.01,10.0,West,5.8,-,N/A,,Mostly Cloudy,270,2012-12-11 12:53:00
6:53 AM,9.0,3.9,80,30.02,10.0,WSW,10.4,-,N/A,,Mostly Cloudy,250,2012-12-11 13:53:00
7:53 AM,10.9,6.1,81,30.02,10.0,WSW,6.9,-,N/A,,Clear,250,2012-12-11 14:53:00
8:53 AM,19.0,10.9,71,29.97,10.0,SW,16.1,-,N/A,,Clear,220,2012-12-11 15:53:00
9:53 AM,24.1,12.9,62,29.96,10.0,SW,12.7,-,N/A,,Clear,230,2012-12-11 16:53:00
10:53 AM,27.0,12.0,53,29.94,10.0,WSW,20.7,26.5,N/A,,Clear,250,2012-12-11 17:53:00
11:53 AM,28.0,12.9,53,29.88,10.0,West,32.2,38.0,N/A,,Clear,260,2012-12-11 18:53:00
12:53 PM,30.0,14.0,51,29.87,10.0,West,25.3,36.8,N/A,,Clear,270,2012-12-11 19:53:00
1:53 PM,30.9,12.9,47,29.87,10.0,WSW,21.9,-,N/A,,Clear,250,2012-12-11 20:53:00
2:53 PM,28.0,12.9,53,29.89,10.0,WSW,25.3,35.7,N/A,,Clear,250,2012-12-11 21:53:00
3:53 PM,26.1,12.9,58,29.90,10.0,WSW,18.4,-,N/A,,Clear,240,2012-12-11 22:53:00
4:53 PM,25.0,12.0,58,29.91,10.0,SW,17.3,20.7,N/A,,Mostly Cloudy,220,2012-12-11 23:53:00
5:53 PM,24.1,10.9,57,29.94,10.0,SSW,9.2,-,N/A,,Scattered Clouds,200,2012-12-12 00:53:00
6:53 PM,25.0,12.9,60,29.90,10.0,WSW,15.0,24.2,N/A,,Scattered Clouds,240,2012-12-12 01:53:00
7:53 PM,26.1,14.0,60,29.87,10.0,WSW,24.2,35.7,N/A,,Clear,240,2012-12-12 02:53:00
8:53 PM,24.1,12.9,62,29.84,10.0,SW,19.6,-,N/A,,Clear,230,2012-12-12 03:53:00
9:53 PM,23.0,12.9,65,29.82,10.0,South,15.0,24.2,N/A,,Clear,180,2012-12-12 04:53:00
10:53 PM,25.0,12.9,60,29.81,10.0,WSW,15.0,-,N/A,,Clear,250,2012-12-12 05:53:00
11:53 PM,24.1,12.9,62,29.82,10.0,SW,10.4,-,N/A,,Partly Cloudy,220,2012-12-12 06:53:00